createdAt,value
2017-07-26T00:07:48.000Z,1000.559
2017-07-26T00:17:48.000Z,1000.671
2017-07-26T00:27:48.000Z,1000.803
2017-07-26T00:37:50.000Z,1000.785
2017-07-26T00:47:48.000Z,1000.817
2017-07-26T01:07:48.000Z,1000.879
2017-07-26T01:17:48.000Z,1000.916
2017-07-26T01:27:48.000Z,1000.833
2017-07-26T01:37:48.000Z,1000.721
2017-07-26T01:47:48.000Z,1000.661
2017-07-26T01:57:48.000Z,1000.647
2017-07-26T02:07:48.000Z,1000.718
2017-07-26T02:17:48.000Z,1000.685
2017-07-26T02:27:48.000Z,1000.726
2017-07-26T02:37:48.000Z,1000.722
2017-07-26T02:47:48.000Z,1000.74
2017-07-26T02:57:48.000Z,1000.871
2017-07-26T03:07:48.000Z,1000.844
2017-07-26T03:17:48.000Z,1000.823
2017-07-26T03:27:48.000Z,1000.841
2017-07-26T03:37:48.000Z,1000.79
2017-07-26T03:47:48.000Z,1000.772
2017-07-26T03:57:48.000Z,1000.733
2017-07-26T04:07:48.000Z,1000.765
2017-07-26T04:17:48.000Z,1000.802
2017-07-26T04:27:48.000Z,1000.897
2017-07-26T04:37:48.000Z,1000.94
2017-07-26T04:47:48.000Z,1000.859
2017-07-26T04:57:48.000Z,1000.912
2017-07-26T05:07:48.000Z,1000.912
2017-07-26T05:17:48.000Z,1000.98
2017-07-26T05:27:49.000Z,1000.91
2017-07-26T05:37:49.000Z,1001.082
2017-07-26T05:47:49.000Z,1001.04
2017-07-26T05:57:49.000Z,1001.054
2017-07-26T06:07:49.000Z,1001.167
2017-07-26T06:17:49.000Z,1001.067
2017-07-26T06:27:49.000Z,1001.115
2017-07-26T06:37:49.000Z,1001.114
2017-07-26T06:47:49.000Z,1001.264
2017-07-26T06:57:49.000Z,1001.329
2017-07-26T07:07:49.000Z,1001.446
2017-07-26T07:17:49.000Z,1001.589
2017-07-26T07:27:49.000Z,1001.507
2017-07-26T07:37:49.000Z,1001.54
2017-07-26T07:47:49.000Z,1001.493
2017-07-26T07:57:49.000Z,1001.523
2017-07-26T08:07:49.000Z,1001.5
2017-07-26T08:17:49.000Z,1001.431
2017-07-26T08:27:49.000Z,1001.401
2017-07-26T08:37:49.000Z,1001.418
2017-07-26T08:47:49.000Z,1001.417
2017-07-26T08:57:49.000Z,1001.352
2017-07-26T09:07:49.000Z,1001.477
2017-07-26T09:17:49.000Z,1001.425
2017-07-26T09:27:49.000Z,1001.449
2017-07-26T09:37:49.000Z,1001.392
2017-07-26T09:47:49.000Z,1001.49
2017-07-26T09:57:49.000Z,1001.541
2017-07-26T10:07:49.000Z,1001.566
2017-07-26T10:17:49.000Z,1001.662
2017-07-26T10:27:49.000Z,1001.641
2017-07-26T10:37:49.000Z,1001.678
2017-07-26T10:47:49.000Z,1001.767
2017-07-26T10:57:49.000Z,1001.718
2017-07-26T11:07:49.000Z,1001.697
2017-07-26T11:17:49.000Z,1001.665
2017-07-26T11:27:49.000Z,1001.593
2017-07-26T11:37:49.000Z,1001.589
2017-07-26T11:47:49.000Z,1001.436
2017-07-26T11:57:49.000Z,1001.455
2017-07-26T12:07:49.000Z,1001.368
2017-07-26T12:17:49.000Z,1001.361
2017-07-26T12:27:49.000Z,1001.248
2017-07-26T12:37:49.000Z,1001.329
2017-07-26T12:47:49.000Z,1001.311
2017-07-26T12:57:49.000Z,1001.327
2017-07-26T13:07:49.000Z,1001.326
2017-07-26T13:17:49.000Z,1001.321
2017-07-26T13:27:49.000Z,1001.281
2017-07-26T13:37:49.000Z,1001.26
2017-07-26T13:47:50.000Z,1001.218
2017-07-26T13:57:49.000Z,1001.197
2017-07-26T14:07:50.000Z,1001.213
2017-07-26T14:17:50.000Z,1001.166
2017-07-26T14:27:50.000Z,1001.161
2017-07-26T14:37:50.000Z,1001.128
2017-07-26T14:47:50.000Z,1001.09
2017-07-26T14:57:50.000Z,1001.041
2017-07-26T15:07:50.000Z,1001.046
2017-07-26T15:17:50.000Z,1001.037
2017-07-26T15:27:50.000Z,1001.013
2017-07-26T15:37:50.000Z,1000.997
2017-07-26T15:47:50.000Z,1000.973
2017-07-26T15:57:50.000Z,1000.942
2017-07-26T16:07:51.000Z,1000.849
2017-07-26T16:17:50.000Z,1000.854
2017-07-26T16:47:50.000Z,1000.897
2017-07-26T16:57:50.000Z,1000.904
2017-07-26T17:07:50.000Z,1000.887
2017-07-26T17:17:54.000Z,1000.903
2017-07-26T17:27:50.000Z,1000.912
2017-07-26T17:37:50.000Z,1000.899
2017-07-26T17:57:50.000Z,1000.992
2017-07-26T18:07:50.000Z,1001.027
2017-07-26T18:17:50.000Z,1000.993
2017-07-26T18:27:50.000Z,1001.007
2017-07-26T18:37:50.000Z,1000.95
2017-07-26T18:47:50.000Z,1000.974
2017-07-26T18:57:50.000Z,1000.945
2017-07-26T19:07:50.000Z,1000.958
2017-07-26T19:17:50.000Z,1000.942
2017-07-26T19:37:50.000Z,1001.076
2017-07-26T19:47:50.000Z,1001.083
2017-07-26T19:57:51.000Z,1001.063
2017-07-26T20:07:50.000Z,1001.047
2017-07-26T20:17:50.000Z,1001.095
2017-07-26T20:27:50.000Z,1001.012
2017-07-26T20:37:50.000Z,1000.935
2017-07-26T20:47:50.000Z,1000.826
2017-07-26T20:57:50.000Z,1000.857
2017-07-26T21:07:50.000Z,1000.916
2017-07-26T21:17:50.000Z,1000.819
2017-07-26T21:27:50.000Z,1000.787
2017-07-26T21:37:50.000Z,1000.863
2017-07-26T21:47:50.000Z,1000.745
2017-07-26T21:57:52.000Z,1000.59
2017-07-26T22:07:51.000Z,1000.42
2017-07-26T22:17:51.000Z,1000.47
2017-07-26T22:27:51.000Z,1000.289
2017-07-26T22:37:51.000Z,1000.115
2017-07-26T22:47:51.000Z,1000.181
2017-07-26T22:57:51.000Z,1000.011
2017-07-26T23:07:51.000Z,1000.08
2017-07-26T23:17:51.000Z,1000.04
2017-07-26T23:27:51.000Z,1000.066
2017-07-26T23:37:51.000Z,999.967
2017-07-26T23:47:51.000Z,999.977
2017-07-26T23:57:51.000Z,999.955
